sensor_id;sensor_type;location;lat;lon;timestamp;pressure;altitude;pressure_sealevel;temperature;humidity
57094;BME280;42970;50.996;3.706;2023-05-03T00:01:31;75926.56;;;-146.65;53.85
57094;BME280;42970;50.996;3.706;2023-05-03T00:03:57;75958.81;;;-146.65;54.66
57094;BME280;42970;50.996;3.706;2023-05-03T00:06:23;75956.81;;;-146.65;54.60
57094;BME280;42970;50.996;3.706;2023-05-03T00:08:48;75976.97;;;-146.65;54.97
57094;BME280;42970;50.996;3.706;2023-05-03T00:11:13;75930.59;;;-146.65;54.48
57094;BME280;42970;50.996;3.706;2023-05-03T00:13:39;75974.97;;;-146.65;55.05
57094;BME280;42970;50.996;3.706;2023-05-03T00:16:05;75983.03;;;-146.65;55.72
57094;BME280;42970;50.996;3.706;2023-05-03T00:18:30;75995.13;;;-146.65;56.40
57094;BME280;42970;50.996;3.706;2023-05-03T00:20:57;75970.94;;;-146.65;55.54
57094;BME280;42970;50.996;3.706;2023-05-03T00:23:22;75991.09;;;-146.65;55.78
57094;BME280;42970;50.996;3.706;2023-05-03T00:25:52;75979.00;;;-146.65;55.44
57094;BME280;42970;50.996;3.706;2023-05-03T00:28:18;76029.44;;;-146.65;56.80
57094;BME280;42970;50.996;3.706;2023-05-03T00:30:43;76035.47;;;-146.65;56.94
57094;BME280;42970;50.996;3.706;2023-05-03T00:33:09;75999.16;;;-146.65;56.38
57094;BME280;42970;50.996;3.706;2023-05-03T00:35:34;76027.41;;;-146.65;56.97
57094;BME280;42970;50.996;3.706;2023-05-03T00:37:59;76001.19;;;-146.65;57.46
57094;BME280;42970;50.996;3.706;2023-05-03T00:40:25;76019.34;;;-146.65;57.13
57094;BME280;42970;50.996;3.706;2023-05-03T00:42:50;75987.06;;;-146.65;56.60
57094;BME280;42970;50.996;3.706;2023-05-03T00:45:16;76057.66;;;-146.65;57.30
57094;BME280;42970;50.996;3.706;2023-05-03T00:47:41;76013.28;;;-146.65;56.80
57094;BME280;42970;50.996;3.706;2023-05-03T00:50:07;76031.44;;;-146.65;57.13
57094;BME280;42970;50.996;3.706;2023-05-03T00:52:36;76023.38;;;-146.65;57.19
57094;BME280;42970;50.996;3.706;2023-05-03T00:55:01;76027.41;;;-146.65;56.90
57094;BME280;42970;50.996;3.706;2023-05-03T00:57:28;76051.63;;;-146.65;57.63
57094;BME280;42970;50.996;3.706;2023-05-03T00:59:53;76007.25;;;-146.65;57.01
57094;BME280;42970;50.996;3.706;2023-05-03T01:02:20;76077.84;;;-146.65;57.86
57094;BME280;42970;50.996;3.706;2023-05-03T01:04:46;76013.28;;;-146.65;56.39
57094;BME280;42970;50.996;3.706;2023-05-03T01:12:14;76045.56;;;-146.65;57.21
57094;BME280;42970;50.996;3.706;2023-05-03T01:14:49;76057.66;;;-146.65;57.53
57094;BME280;42970;50.996;3.706;2023-05-03T01:17:17;76067.75;;;-146.65;58.18
57094;BME280;42970;50.996;3.706;2023-05-03T01:19:50;76037.50;;;-146.65;57.71
57094;BME280;42970;50.996;3.706;2023-05-03T01:22:16;76017.31;;;-146.65;57.46
57094;BME280;42970;50.996;3.706;2023-05-03T01:24:46;76059.69;;;-146.65;58.56
57094;BME280;42970;50.996;3.706;2023-05-03T01:27:15;76067.75;;;-146.65;59.18
57094;BME280;42970;50.996;3.706;2023-05-03T01:29:40;76053.63;;;-146.65;58.41
57094;BME280;42970;50.996;3.706;2023-05-03T01:32:08;76065.75;;;-146.65;59.03
57094;BME280;42970;50.996;3.706;2023-05-03T01:34:47;76081.88;;;-146.65;59.74
57094;BME280;42970;50.996;3.706;2023-05-03T01:37:14;76106.09;;;-146.65;60.23
57094;BME280;42970;50.996;3.706;2023-05-03T01:39:45;76063.72;;;-146.65;59.98
57094;BME280;42970;50.996;3.706;2023-05-03T01:42:13;76049.59;;;-146.65;59.44
57094;BME280;42970;50.996;3.706;2023-05-03T01:44:40;76055.66;;;-146.65;59.40
57094;BME280;42970;50.996;3.706;2023-05-03T01:47:07;76023.38;;;-146.65;58.91
57094;BME280;42970;50.996;3.706;2023-05-03T01:49:33;76051.63;;;-146.65;60.10
57094;BME280;42970;50.996;3.706;2023-05-03T01:51:59;76120.22;;;-146.65;60.75
57094;BME280;42970;50.996;3.706;2023-05-03T01:54:24;76041.53;;;-146.65;59.31
57094;BME280;42970;50.996;3.706;2023-05-03T01:56:50;76057.66;;;-146.65;59.11
57094;BME280;42970;50.996;3.706;2023-05-03T01:59:15;76085.91;;;-146.65;59.29
57094;BME280;42970;50.996;3.706;2023-05-03T02:01:41;76093.97;;;-146.65;59.60
57094;BME280;42970;50.996;3.706;2023-05-03T02:04:06;76114.16;;;-146.65;60.30
57094;BME280;42970;50.996;3.706;2023-05-03T02:06:31;76110.13;;;-146.65;60.47
57094;BME280;42970;50.996;3.706;2023-05-03T02:09:09;76118.19;;;-146.65;60.92
57094;BME280;42970;50.996;3.706;2023-05-03T02:11:34;76138.38;;;-146.65;61.16
57094;BME280;42970;50.996;3.706;2023-05-03T02:14:00;76106.09;;;-146.65;60.00
57094;BME280;42970;50.996;3.706;2023-05-03T02:16:25;76122.22;;;-146.65;60.64
57094;BME280;42970;50.996;3.706;2023-05-03T02:18:51;76118.19;;;-146.65;60.69
57094;BME280;42970;50.996;3.706;2023-05-03T02:21:18;76138.38;;;-146.65;61.57
57094;BME280;42970;50.996;3.706;2023-05-03T02:23:43;76112.13;;;-146.65;61.03
57094;BME280;42970;50.996;3.706;2023-05-03T02:26:09;76112.13;;;-146.65;61.55
57094;BME280;42970;50.996;3.706;2023-05-03T02:28:34;76106.09;;;-146.65;60.63
57094;BME280;42970;50.996;3.706;2023-05-03T02:31:00;76102.06;;;-146.65;60.52
57094;BME280;42970;50.996;3.706;2023-05-03T02:33:26;76112.13;;;-146.65;60.69
57094;BME280;42970;50.996;3.706;2023-05-03T02:35:51;76114.16;;;-146.65;61.24
57094;BME280;42970;50.996;3.706;2023-05-03T02:38:17;76093.97;;;-146.65;60.49
57094;BME280;42970;50.996;3.706;2023-05-03T02:40:42;76146.44;;;-146.65;61.57
57094;BME280;42970;50.996;3.706;2023-05-03T02:43:08;76106.09;;;-146.65;60.75
57094;BME280;42970;50.996;3.706;2023-05-03T02:45:36;76164.59;;;-146.65;61.61
57094;BME280;42970;50.996;3.706;2023-05-03T02:48:02;76124.25;;;-146.65;61.36
57094;BME280;42970;50.996;3.706;2023-05-03T02:50:27;76136.34;;;-146.65;60.66
57094;BME280;42970;50.996;3.706;2023-05-03T02:52:52;76093.97;;;-146.65;60.21
57094;BME280;42970;50.996;3.706;2023-05-03T02:55:18;76073.81;;;-146.65;59.08
57094;BME280;42970;50.996;3.706;2023-05-03T02:57:43;76132.31;;;-146.65;59.99
57094;BME280;42970;50.996;3.706;2023-05-03T03:00:10;76089.94;;;-146.65;59.53
57094;BME280;42970;50.996;3.706;2023-05-03T03:02:36;76065.75;;;-146.65;58.57
57094;BME280;42970;50.996;3.706;2023-05-03T03:05:02;76089.94;;;-146.65;58.72
57094;BME280;42970;50.996;3.706;2023-05-03T03:07:27;76114.16;;;-146.65;59.04
57094;BME280;42970;50.996;3.706;2023-05-03T03:09:53;76114.16;;;-146.65;59.34
57094;BME280;42970;50.996;3.706;2023-05-03T03:12:18;76087.94;;;-146.65;58.87
57094;BME280;42970;50.996;3.706;2023-05-03T03:14:44;76104.06;;;-146.65;59.09
57094;BME280;42970;50.996;3.706;2023-05-03T03:17:10;76085.91;;;-146.65;59.28
57094;BME280;42970;50.996;3.706;2023-05-03T03:19:36;76120.22;;;-146.65;59.82
57094;BME280;42970;50.996;3.706;2023-05-03T03:22:01;76093.97;;;-146.65;59.30
57094;BME280;42970;50.996;3.706;2023-05-03T03:24:27;76106.09;;;-146.65;59.19
57094;BME280;42970;50.996;3.706;2023-05-03T03:26:52;76154.50;;;-146.65;60.43
57094;BME280;42970;50.996;3.706;2023-05-03T03:29:18;76108.09;;;-146.65;59.29
57094;BME280;42970;50.996;3.706;2023-05-03T03:31:43;76132.31;;;-146.65;59.57
57094;BME280;42970;50.996;3.706;2023-05-03T03:34:11;76116.19;;;-146.65;59.35
57094;BME280;42970;50.996;3.706;2023-05-03T03:36:37;76124.25;;;-146.65;59.43
57094;BME280;42970;50.996;3.706;2023-05-03T03:39:04;76158.53;;;-146.65;59.74
57094;BME280;42970;50.996;3.706;2023-05-03T03:41:31;76132.31;;;-146.65;59.48
57094;BME280;42970;50.996;3.706;2023-05-03T03:43:56;76154.50;;;-146.65;60.41
57094;BME280;42970;50.996;3.706;2023-05-03T03:46:22;76134.31;;;-146.65;59.50
57094;BME280;42970;50.996;3.706;2023-05-03T03:48:47;76144.41;;;-146.65;59.40
57094;BME280;42970;50.996;3.706;2023-05-03T03:51:13;76138.38;;;-146.65;59.61
57094;BME280;42970;50.996;3.706;2023-05-03T03:53:38;76110.13;;;-146.65;58.77
57094;BME280;42970;50.996;3.706;2023-05-03T03:56:04;76104.06;;;-146.65;59.19
57094;BME280;42970;50.996;3.706;2023-05-03T03:58:30;76081.88;;;-146.65;58.83
57094;BME280;42970;50.996;3.706;2023-05-03T04:00:56;76112.13;;;-146.65;59.03
57094;BME280;42970;50.996;3.706;2023-05-03T04:03:21;76100.03;;;-146.65;59.11
57094;BME280;42970;50.996;3.706;2023-05-03T04:05:47;76118.19;;;-146.65;59.76
57094;BME280;42970;50.996;3.706;2023-05-03T04:08:12;76120.22;;;-146.65;59.50
57094;BME280;42970;50.996;3.706;2023-05-03T04:10:38;76118.19;;;-146.65;59.87
57094;BME280;42970;50.996;3.706;2023-05-03T04:13:03;76106.09;;;-146.65;59.20
57094;BME280;42970;50.996;3.706;2023-05-03T04:15:28;76136.34;;;-146.65;59.51
57094;BME280;42970;50.996;3.706;2023-05-03T04:17:54;76144.41;;;-146.65;60.20
57094;BME280;42970;50.996;3.706;2023-05-03T04:20:19;76120.22;;;-146.65;59.46
57094;BME280;42970;50.996;3.706;2023-05-03T04:22:45;76154.50;;;-146.65;60.17
57094;BME280;42970;50.996;3.706;2023-05-03T04:25:11;76176.69;;;-146.65;60.49
57094;BME280;42970;50.996;3.706;2023-05-03T04:27:41;76146.44;;;-146.65;60.13
57094;BME280;42970;50.996;3.706;2023-05-03T04:30:07;76182.75;;;-146.65;61.32
57094;BME280;42970;50.996;3.706;2023-05-03T04:32:33;76186.78;;;-146.65;60.79
57094;BME280;42970;50.996;3.706;2023-05-03T04:35:03;76152.50;;;-146.65;60.28
57094;BME280;42970;50.996;3.706;2023-05-03T04:37:34;76118.19;;;-146.65;59.60
57094;BME280;42970;50.996;3.706;2023-05-03T04:39:59;76168.63;;;-146.65;60.30
57094;BME280;42970;50.996;3.706;2023-05-03T04:42:25;76142.41;;;-146.65;59.96
57094;BME280;42970;50.996;3.706;2023-05-03T04:44:51;76231.16;;;-146.65;61.86
57094;BME280;42970;50.996;3.706;2023-05-03T04:47:17;76202.91;;;-146.65;62.16
57094;BME280;42970;50.996;3.706;2023-05-03T04:49:43;76152.50;;;-146.65;60.72
57094;BME280;42970;50.996;3.706;2023-05-03T04:52:08;76154.50;;;-146.65;60.71
57094;BME280;42970;50.996;3.706;2023-05-03T04:54:34;76196.88;;;-146.65;61.73
57094;BME280;42970;50.996;3.706;2023-05-03T04:57:00;76170.66;;;-146.65;61.75
57094;BME280;42970;50.996;3.706;2023-05-03T04:59:25;76206.97;;;-146.65;62.17
57094;BME280;42970;50.996;3.706;2023-05-03T05:01:51;76124.25;;;-146.65;60.76
57094;BME280;42970;50.996;3.706;2023-05-03T05:04:16;76170.66;;;-146.65;61.03
57094;BME280;42970;50.996;3.706;2023-05-03T05:06:42;76142.41;;;-146.65;60.54
57094;BME280;42970;50.996;3.706;2023-05-03T05:09:19;76186.78;;;-146.65;61.85
57094;BME280;42970;50.996;3.706;2023-05-03T05:11:45;76144.41;;;-146.65;61.39
57094;BME280;42970;50.996;3.706;2023-05-03T05:14:11;76126.25;;;-146.65;60.95
57094;BME280;42970;50.996;3.706;2023-05-03T05:16:36;76132.31;;;-146.65;60.56
57094;BME280;42970;50.996;3.706;2023-05-03T05:19:02;76124.25;;;-146.65;60.85
57094;BME280;42970;50.996;3.706;2023-05-03T05:21:28;76150.47;;;-146.65;61.18
57094;BME280;42970;50.996;3.706;2023-05-03T05:23:53;76150.47;;;-146.65;61.08
57094;BME280;42970;50.996;3.706;2023-05-03T05:26:19;76154.50;;;-146.65;60.97
57094;BME280;42970;50.996;3.706;2023-05-03T05:28:44;76140.38;;;-146.65;60.94
57094;BME280;42970;50.996;3.706;2023-05-03T05:31:10;76100.03;;;-146.65;60.22
57094;BME280;42970;50.996;3.706;2023-05-03T05:33:35;76089.94;;;-146.65;59.68
57094;BME280;42970;50.996;3.706;2023-05-03T05:38:28;76075.81;;;-146.65;59.21
57094;BME280;42970;50.996;3.706;2023-05-03T05:40:54;76069.78;;;-146.65;59.21
57094;BME280;42970;50.996;3.706;2023-05-03T05:43:19;76089.94;;;-146.65;58.83
57094;BME280;42970;50.996;3.706;2023-05-03T05:45:45;76057.66;;;-146.65;58.73
57094;BME280;42970;50.996;3.706;2023-05-03T05:48:10;76100.03;;;-146.65;59.38
57094;BME280;42970;50.996;3.706;2023-05-03T05:50:36;76067.75;;;-146.65;58.85
57094;BME280;42970;50.996;3.706;2023-05-03T05:53:01;76037.50;;;-146.65;57.88
57094;BME280;42970;50.996;3.706;2023-05-03T05:55:27;76037.50;;;-146.65;58.43
57094;BME280;42970;50.996;3.706;2023-05-03T05:57:52;76021.34;;;-146.65;57.63
57094;BME280;42970;50.996;3.706;2023-05-03T06:00:18;75997.16;;;-146.65;57.51
57094;BME280;42970;50.996;3.706;2023-05-03T06:02:45;76005.22;;;-146.65;56.77
57094;BME280;42970;50.996;3.706;2023-05-03T06:05:11;75974.97;;;-146.65;56.60
57094;BME280;42970;50.996;3.706;2023-05-03T06:07:37;76021.34;;;-146.65;57.37
57094;BME280;42970;50.996;3.706;2023-05-03T06:10:02;76001.19;;;-146.65;57.24
57094;BME280;42970;50.996;3.706;2023-05-03T06:12:28;76029.44;;;-146.65;57.56
57094;BME280;42970;50.996;3.706;2023-05-03T06:14:54;75995.13;;;-146.65;57.18
57094;BME280;42970;50.996;3.706;2023-05-03T06:17:20;76003.22;;;-146.65;57.16
57094;BME280;42970;50.996;3.706;2023-05-03T06:19:47;75993.13;;;-146.65;57.03
57094;BME280;42970;50.996;3.706;2023-05-03T06:22:13;75972.94;;;-146.65;56.73
57094;BME280;42970;50.996;3.706;2023-05-03T06:24:39;75964.88;;;-146.65;55.80
57094;BME280;42970;50.996;3.706;2023-05-03T06:27:04;75997.16;;;-146.65;56.46
57094;BME280;42970;50.996;3.706;2023-05-03T06:29:30;75958.81;;;-146.65;55.94
57094;BME280;42970;50.996;3.706;2023-05-03T06:31:55;75906.38;;;-146.65;55.65
57094;BME280;42970;50.996;3.706;2023-05-03T06:34:26;75924.53;;;-146.65;55.77
57094;BME280;42970;50.996;3.706;2023-05-03T06:36:54;75892.25;;;-146.65;55.56
57094;BME280;42970;50.996;3.706;2023-05-03T06:39:19;75872.09;;;-146.65;54.29
57094;BME280;42970;50.996;3.706;2023-05-03T06:41:45;75948.75;;;-146.65;54.27
57094;BME280;42970;50.996;3.706;2023-05-03T06:44:10;75855.94;;;-146.65;55.34
57094;BME280;42970;50.996;3.706;2023-05-03T06:46:36;75849.91;;;-146.65;54.80
57094;BME280;42970;50.996;3.706;2023-05-03T06:49:01;75880.16;;;-146.65;53.46
57094;BME280;42970;50.996;3.706;2023-05-03T06:51:27;75775.25;;;-146.65;52.11
57094;BME280;42970;50.996;3.706;2023-05-03T06:53:54;75805.50;;;-146.65;52.77
57094;BME280;42970;50.996;3.706;2023-05-03T06:56:24;75821.66;;;-146.65;52.43
57094;BME280;42970;50.996;3.706;2023-05-03T06:58:50;75817.63;;;-146.65;51.84
57094;BME280;42970;50.996;3.706;2023-05-03T07:01:15;75779.28;;;-146.65;51.43
57094;BME280;42970;50.996;3.706;2023-05-03T07:03:43;75714.75;;;-146.65;50.75
57094;BME280;42970;50.996;3.706;2023-05-03T07:06:08;75757.09;;;-146.65;50.34
57094;BME280;42970;50.996;3.706;2023-05-03T07:08:34;75724.81;;;-146.65;50.33
57094;BME280;42970;50.996;3.706;2023-05-03T07:10:59;75704.66;;;-146.65;49.88
57094;BME280;42970;50.996;3.706;2023-05-03T07:13:25;75694.56;;;-146.65;49.43
57094;BME280;42970;50.996;3.706;2023-05-03T07:15:50;75751.06;;;-146.65;48.97
57094;BME280;42970;50.996;3.706;2023-05-03T07:18:15;75726.84;;;-146.65;49.12
57094;BME280;42970;50.996;3.706;2023-05-03T07:20:41;75672.38;;;-146.65;48.38
57094;BME280;42970;50.996;3.706;2023-05-03T07:23:06;75668.34;;;-146.65;48.42
57094;BME280;42970;50.996;3.706;2023-05-03T07:25:32;75668.34;;;-146.65;47.70
57094;BME280;42970;50.996;3.706;2023-05-03T07:27:57;75615.91;;;-146.65;47.99
57094;BME280;42970;50.996;3.706;2023-05-03T07:30:23;75648.19;;;-146.65;48.67
57094;BME280;42970;50.996;3.706;2023-05-03T07:32:48;75658.25;;;-146.65;48.05
57094;BME280;42970;50.996;3.706;2023-05-03T07:35:14;75601.78;;;-146.65;46.91
57094;BME280;42970;50.996;3.706;2023-05-03T07:37:40;75650.19;;;-146.65;47.25
57094;BME280;42970;50.996;3.706;2023-05-03T07:40:06;75654.22;;;-146.65;47.62
57094;BME280;42970;50.996;3.706;2023-05-03T07:42:32;75613.88;;;-146.65;47.23
57094;BME280;42970;50.996;3.706;2023-05-03T07:44:58;75591.69;;;-146.65;47.07
57094;BME280;42970;50.996;3.706;2023-05-03T07:47:24;75569.50;;;-146.65;46.85
57094;BME280;42970;50.996;3.706;2023-05-03T07:49:50;75613.88;;;-146.65;46.66
57094;BME280;42970;50.996;3.706;2023-05-03T07:52:16;75523.13;;;-146.65;46.04
57094;BME280;42970;50.996;3.706;2023-05-03T07:54:42;75565.47;;;-146.65;46.57
57094;BME280;42970;50.996;3.706;2023-05-03T07:57:12;75615.91;;;-146.65;46.96
57094;BME280;42970;50.996;3.706;2023-05-03T07:59:38;75535.22;;;-146.65;46.48
57094;BME280;42970;50.996;3.706;2023-05-03T08:02:03;75547.31;;;-146.65;45.99
57094;BME280;42970;50.996;3.706;2023-05-03T08:04:29;75484.78;;;-146.65;45.64
57094;BME280;42970;50.996;3.706;2023-05-03T08:06:54;75480.75;;;-146.65;45.25
57094;BME280;42970;50.996;3.706;2023-05-03T08:09:20;75418.25;;;-146.65;44.35
57094;BME280;42970;50.996;3.706;2023-05-03T08:11:45;75486.81;;;-146.65;44.74
57094;BME280;42970;50.996;3.706;2023-05-03T08:14:11;75414.19;;;-146.65;44.29
57094;BME280;42970;50.996;3.706;2023-05-03T08:16:37;75422.28;;;-146.65;43.96
57094;BME280;42970;50.996;3.706;2023-05-03T08:19:02;75373.88;;;-146.65;42.60
57094;BME280;42970;50.996;3.706;2023-05-03T08:21:29;75402.09;;;-146.65;43.10
57094;BME280;42970;50.996;3.706;2023-05-03T08:23:55;75444.47;;;-146.65;43.11
57094;BME280;42970;50.996;3.706;2023-05-03T08:26:21;75448.50;;;-146.65;43.38
57094;BME280;42970;50.996;3.706;2023-05-03T08:28:46;75424.28;;;-146.65;42.74
57094;BME280;42970;50.996;3.706;2023-05-03T08:31:12;75396.06;;;-146.65;42.58
57094;BME280;42970;50.996;3.706;2023-05-03T08:33:38;75398.06;;;-146.65;42.50
57094;BME280;42970;50.996;3.706;2023-05-03T08:36:04;75323.44;;;-146.65;42.19
57094;BME280;42970;50.996;3.706;2023-05-03T08:38:30;75383.94;;;-146.65;41.68
57094;BME280;42970;50.996;3.706;2023-05-03T08:40:58;75402.09;;;-146.65;42.05
57094;BME280;42970;50.996;3.706;2023-05-03T08:43:28;75363.78;;;-146.65;42.19
57094;BME280;42970;50.996;3.706;2023-05-03T08:45:55;75357.72;;;-146.65;41.55
57094;BME280;42970;50.996;3.706;2023-05-03T08:48:21;75301.25;;;-146.65;41.20
57094;BME280;42970;50.996;3.706;2023-05-03T08:50:47;75339.56;;;-146.65;41.50
57094;BME280;42970;50.996;3.706;2023-05-03T08:53:13;75273.03;;;-146.65;40.36
57094;BME280;42970;50.996;3.706;2023-05-03T08:55:38;75266.97;;;-146.65;40.50
57094;BME280;42970;50.996;3.706;2023-05-03T08:58:07;75198.38;;;-146.65;40.92
57094;BME280;42970;50.996;3.706;2023-05-03T09:00:37;75226.63;;;-146.65;39.77
57094;BME280;42970;50.996;3.706;2023-05-03T09:03:03;75240.75;;;-146.65;40.02
57094;BME280;42970;50.996;3.706;2023-05-03T09:08:10;75216.53;;;-146.65;39.61
57094;BME280;42970;50.996;3.706;2023-05-03T09:10:41;75208.47;;;-146.65;39.66
57094;BME280;42970;50.996;3.706;2023-05-03T09:13:07;75170.16;;;-146.65;39.98
57094;BME280;42970;50.996;3.706;2023-05-03T09:15:32;75218.56;;;-146.65;38.97
57094;BME280;42970;50.996;3.706;2023-05-03T09:18:12;75254.88;;;-146.65;38.90
57094;BME280;42970;50.996;3.706;2023-05-03T09:20:40;75299.25;;;-146.65;38.44
57094;BME280;42970;50.996;3.706;2023-05-03T09:23:07;75226.63;;;-146.65;38.32
57094;BME280;42970;50.996;3.706;2023-05-03T09:28:08;75277.06;;;-146.65;38.45
57094;BME280;42970;50.996;3.706;2023-05-03T09:30:33;75242.75;;;-146.65;38.08
57094;BME280;42970;50.996;3.706;2023-05-03T09:32:59;75170.16;;;-146.65;37.37
57094;BME280;42970;50.996;3.706;2023-05-03T09:35:24;75137.88;;;-146.65;37.26
57094;BME280;42970;50.996;3.706;2023-05-03T09:37:50;75103.59;;;-146.65;37.60
57094;BME280;42970;50.996;3.706;2023-05-03T09:40:15;75154.03;;;-146.65;38.29
57094;BME280;42970;50.996;3.706;2023-05-03T09:43:09;75097.56;;;-146.65;38.16
57094;BME280;42970;50.996;3.706;2023-05-03T09:45:36;75127.81;;;-146.65;38.02
57094;BME280;42970;50.996;3.706;2023-05-03T09:48:03;75125.78;;;-146.65;37.92
57094;BME280;42970;50.996;3.706;2023-05-03T09:50:33;75109.66;;;-146.65;38.31
57094;BME280;42970;50.996;3.706;2023-05-03T09:53:03;75105.63;;;-146.65;36.96
57094;BME280;42970;50.996;3.706;2023-05-03T09:55:37;74994.69;;;-146.65;36.31
57094;BME280;42970;50.996;3.706;2023-05-03T09:58:04;75022.94;;;-146.65;36.58
57094;BME280;42970;50.996;3.706;2023-05-03T10:00:35;74968.47;;;-146.65;36.20
57094;BME280;42970;50.996;3.706;2023-05-03T10:03:06;75073.34;;;-146.65;36.58
57094;BME280;42970;50.996;3.706;2023-05-03T10:05:32;75018.91;;;-146.65;35.71
57094;BME280;42970;50.996;3.706;2023-05-03T10:08:01;75051.16;;;-146.65;35.65
57094;BME280;42970;50.996;3.706;2023-05-03T10:10:31;74980.56;;;-146.65;35.80
57094;BME280;42970;50.996;3.706;2023-05-03T10:13:00;75053.19;;;-146.65;36.03
57094;BME280;42970;50.996;3.706;2023-05-03T10:15:28;74934.19;;;-146.65;36.79
57094;BME280;42970;50.996;3.706;2023-05-03T10:17:56;74861.59;;;-146.65;35.57
57094;BME280;42970;50.996;3.706;2023-05-03T10:21:00;74994.69;;;-146.65;36.54
57094;BME280;42970;50.996;3.706;2023-05-03T10:23:26;74942.25;;;-146.65;35.45
57094;BME280;42970;50.996;3.706;2023-05-03T10:28:34;74839.41;;;-146.65;34.11
57094;BME280;42970;50.996;3.706;2023-05-03T10:30:59;74857.56;;;-146.65;35.24
57094;BME280;42970;50.996;3.706;2023-05-03T10:33:29;74821.25;;;-146.65;34.83
57094;BME280;42970;50.996;3.706;2023-05-03T10:35:56;74744.63;;;-146.65;33.82
57094;BME280;42970;50.996;3.706;2023-05-03T10:38:25;74750.66;;;-146.65;33.37
57094;BME280;42970;50.996;3.706;2023-05-03T10:40:51;74682.09;;;-146.65;32.42
57094;BME280;42970;50.996;3.706;2023-05-03T10:45:56;74647.81;;;-146.65;33.29
57094;BME280;42970;50.996;3.706;2023-05-03T10:48:22;74617.56;;;-146.65;32.29
57094;BME280;42970;50.996;3.706;2023-05-03T10:50:48;74544.97;;;-146.65;31.08
57094;BME280;42970;50.996;3.706;2023-05-03T10:56:05;74504.66;;;-146.65;31.11
57094;BME280;42970;50.996;3.706;2023-05-03T10:58:42;74579.25;;;-146.65;31.02
57094;BME280;42970;50.996;3.706;2023-05-03T11:01:09;74494.56;;;-146.65;30.40
57094;BME280;42970;50.996;3.706;2023-05-03T11:06:39;74498.59;;;-146.65;31.86
57094;BME280;42970;50.996;3.706;2023-05-03T11:09:10;74468.34;;;-146.65;30.74
57094;BME280;42970;50.996;3.706;2023-05-03T11:11:39;74492.56;;;-146.65;30.13
57094;BME280;42970;50.996;3.706;2023-05-03T11:14:05;74520.78;;;-146.65;30.94
57094;BME280;42970;50.996;3.706;2023-05-03T11:16:31;74581.28;;;-146.65;31.40
57094;BME280;42970;50.996;3.706;2023-05-03T11:18:58;74492.56;;;-146.65;31.06
57094;BME280;42970;50.996;3.706;2023-05-03T11:21:24;74442.13;;;-146.65;31.04
57094;BME280;42970;50.996;3.706;2023-05-03T11:23:50;74389.72;;;-146.65;31.97
57094;BME280;42970;50.996;3.706;2023-05-03T11:26:15;74436.09;;;-146.65;30.17
57094;BME280;42970;50.996;3.706;2023-05-03T11:28:45;74551.03;;;-146.65;31.52
57094;BME280;42970;50.996;3.706;2023-05-03T11:31:11;74508.69;;;-146.65;30.46
57094;BME280;42970;50.996;3.706;2023-05-03T11:33:40;74432.06;;;-146.65;30.91
57094;BME280;42970;50.996;3.706;2023-05-03T11:36:06;74450.19;;;-146.65;30.60
57094;BME280;42970;50.996;3.706;2023-05-03T11:38:35;74468.34;;;-146.65;30.19
57094;BME280;42970;50.996;3.706;2023-05-03T11:41:10;74403.81;;;-146.65;30.21
57094;BME280;42970;50.996;3.706;2023-05-03T11:43:46;74300.97;;;-146.65;29.48
57094;BME280;42970;50.996;3.706;2023-05-03T11:46:15;74250.56;;;-146.65;29.54
57094;BME280;42970;50.996;3.706;2023-05-03T11:48:43;74440.13;;;-146.65;29.40
57094;BME280;42970;50.996;3.706;2023-05-03T11:51:09;74490.53;;;-146.65;29.86
57094;BME280;42970;50.996;3.706;2023-05-03T11:53:39;74417.94;;;-146.65;29.87
57094;BME280;42970;50.996;3.706;2023-05-03T11:56:08;74436.09;;;-146.65;29.74
57094;BME280;42970;50.996;3.706;2023-05-03T11:58:34;74292.91;;;-146.65;29.22
57094;BME280;42970;50.996;3.706;2023-05-03T12:01:00;74276.78;;;-146.65;28.82
57094;BME280;42970;50.996;3.706;2023-05-03T12:03:27;74335.25;;;-146.65;28.88
57094;BME280;42970;50.996;3.706;2023-05-03T12:05:54;74359.47;;;-146.65;28.63
57094;BME280;42970;50.996;3.706;2023-05-03T12:08:20;74492.56;;;-146.65;30.33
57094;BME280;42970;50.996;3.706;2023-05-03T12:10:47;74448.19;;;-146.65;30.16
57094;BME280;42970;50.996;3.706;2023-05-03T12:13:13;74407.84;;;-146.65;29.77
57094;BME280;42970;50.996;3.706;2023-05-03T12:15:39;74361.47;;;-146.65;29.57
57094;BME280;42970;50.996;3.706;2023-05-03T12:18:09;74303.00;;;-146.65;28.83
57094;BME280;42970;50.996;3.706;2023-05-03T12:20:36;74367.53;;;-146.65;29.33
57094;BME280;42970;50.996;3.706;2023-05-03T12:23:04;74442.13;;;-146.65;29.83
57094;BME280;42970;50.996;3.706;2023-05-03T12:25:31;74407.84;;;-146.65;29.44
57094;BME280;42970;50.996;3.706;2023-05-03T12:28:01;74355.44;;;-146.65;29.67
57094;BME280;42970;50.996;3.706;2023-05-03T12:30:27;74182.00;;;-146.65;28.59
57094;BME280;42970;50.996;3.706;2023-05-03T12:32:53;74222.34;;;-146.65;28.39
57094;BME280;42970;50.996;3.706;2023-05-03T12:35:20;74186.06;;;-146.65;28.88
57094;BME280;42970;50.996;3.706;2023-05-03T12:37:46;74105.41;;;-146.65;28.10
57094;BME280;42970;50.996;3.706;2023-05-03T12:40:13;74238.47;;;-146.65;29.29
57094;BME280;42970;50.996;3.706;2023-05-03T12:42:39;74093.31;;;-146.65;28.50
57094;BME280;42970;50.996;3.706;2023-05-03T12:45:05;74353.41;;;-146.65;29.00
57094;BME280;42970;50.996;3.706;2023-05-03T12:47:32;74343.31;;;-146.65;28.64
57094;BME280;42970;50.996;3.706;2023-05-03T12:49:58;74428.03;;;-146.65;29.20
57094;BME280;42970;50.996;3.706;2023-05-03T12:52:23;74377.59;;;-146.65;29.06
57094;BME280;42970;50.996;3.706;2023-05-03T12:54:49;74470.38;;;-146.65;30.26
57094;BME280;42970;50.996;3.706;2023-05-03T12:57:15;74424.00;;;-146.65;30.05
57094;BME280;42970;50.996;3.706;2023-05-03T12:59:41;74419.97;;;-146.65;29.81
57094;BME280;42970;50.996;3.706;2023-05-03T13:02:08;74363.50;;;-146.65;29.12